sensor_id;sensor_type;location;lat;lon;timestamp;pressure;altitude;pressure_sealevel;temperature;humidity
57594;BME280;43423;46.510;6.686;2023-03-03T00:01:59;96489.31;;;1.62;75.03
57594;BME280;43423;46.510;6.686;2023-03-03T00:04:24;96488.91;;;1.63;75.08
57594;BME280;43423;46.510;6.686;2023-03-03T00:06:50;96485.09;;;1.61;75.56
57594;BME280;43423;46.510;6.686;2023-03-03T00:09:15;96483.47;;;1.63;74.31
57594;BME280;43423;46.510;6.686;2023-03-03T00:11:41;96487.72;;;1.64;74.86
57594;BME280;43423;46.510;6.686;2023-03-03T00:14:21;96480.47;;;1.58;74.56
57594;BME280;43423;46.510;6.686;2023-03-03T00:16:48;96487.03;;;1.60;74.91
57594;BME280;43423;46.510;6.686;2023-03-03T00:19:17;96486.19;;;1.63;73.97
57594;BME280;43423;46.510;6.686;2023-03-03T00:21:50;96479.81;;;1.54;74.82
57594;BME280;43423;46.510;6.686;2023-03-03T00:24:34;96476.13;;;1.44;75.40
57594;BME280;43423;46.510;6.686;2023-03-03T00:27:49;96487.75;;;1.45;75.32
57594;BME280;43423;46.510;6.686;2023-03-03T00:29:57;96480.59;;;1.34;75.83
57594;BME280;43423;46.510;6.686;2023-03-03T00:32:26;96480.31;;;1.29;76.10
57594;BME280;43423;46.510;6.686;2023-03-03T00:35:01;96482.38;;;1.41;75.33
57594;BME280;43423;46.510;6.686;2023-03-03T00:37:34;96473.91;;;1.39;75.98
57594;BME280;43423;46.510;6.686;2023-03-03T00:40:23;96477.81;;;1.38;76.82
57594;BME280;43423;46.510;6.686;2023-03-03T00:42:51;96485.38;;;1.27;76.39
57594;BME280;43423;46.510;6.686;2023-03-03T00:45:25;96483.44;;;1.27;77.30
57594;BME280;43423;46.510;6.686;2023-03-03T00:47:53;96488.09;;;1.27;76.77
57594;BME280;43423;46.510;6.686;2023-03-03T00:52:52;96486.00;;;1.34;76.12
57594;BME280;43423;46.510;6.686;2023-03-03T00:55:20;96483.91;;;1.22;76.69
57594;BME280;43423;46.510;6.686;2023-03-03T00:57:45;96487.66;;;1.28;76.27
57594;BME280;43423;46.510;6.686;2023-03-03T01:00:11;96481.88;;;1.26;75.94
57594;BME280;43423;46.510;6.686;2023-03-03T01:02:37;96483.44;;;1.27;76.26
57594;BME280;43423;46.510;6.686;2023-03-03T01:05:03;96481.06;;;1.29;76.57
57594;BME280;43423;46.510;6.686;2023-03-03T01:07:29;96485.91;;;1.18;76.31
57594;BME280;43423;46.510;6.686;2023-03-03T01:09:54;96477.56;;;1.09;76.71
57594;BME280;43423;46.510;6.686;2023-03-03T01:12:20;96487.84;;;0.98;77.68
57594;BME280;43423;46.510;6.686;2023-03-03T01:14:45;96480.81;;;0.80;78.08
57594;BME280;43423;46.510;6.686;2023-03-03T01:17:13;96486.25;;;1.00;77.19
57594;BME280;43423;46.510;6.686;2023-03-03T01:19:39;96485.50;;;0.76;78.46
57594;BME280;43423;46.510;6.686;2023-03-03T01:22:04;96472.81;;;0.73;78.37
57594;BME280;43423;46.510;6.686;2023-03-03T01:24:30;96476.56;;;0.79;78.06
57594;BME280;43423;46.510;6.686;2023-03-03T01:26:55;96475.28;;;0.88;77.22
57594;BME280;43423;46.510;6.686;2023-03-03T01:29:21;96474.09;;;0.89;77.53
57594;BME280;43423;46.510;6.686;2023-03-03T01:31:46;96477.91;;;0.91;77.86
57594;BME280;43423;46.510;6.686;2023-03-03T01:34:12;96475.19;;;0.91;77.89
57594;BME280;43423;46.510;6.686;2023-03-03T01:36:37;96478.69;;;0.68;79.26
57594;BME280;43423;46.510;6.686;2023-03-03T01:39:03;96483.69;;;0.70;78.94
57594;BME280;43423;46.510;6.686;2023-03-03T01:41:29;96476.03;;;0.65;79.55
57594;BME280;43423;46.510;6.686;2023-03-03T01:43:58;96482.97;;;0.66;80.11
57594;BME280;43423;46.510;6.686;2023-03-03T01:49:14;96478.75;;;0.88;78.90
57594;BME280;43423;46.510;6.686;2023-03-03T01:51:46;96483.88;;;1.02;78.55
57594;BME280;43423;46.510;6.686;2023-03-03T01:54:26;96479.50;;;1.08;78.18
57594;BME280;43423;46.510;6.686;2023-03-03T01:56:55;96485.78;;;1.05;78.16
57594;BME280;43423;46.510;6.686;2023-03-03T01:59:26;96483.69;;;1.13;77.65
57594;BME280;43423;46.510;6.686;2023-03-03T02:01:54;96487.22;;;1.10;78.02
57594;BME280;43423;46.510;6.686;2023-03-03T02:04:19;96482.97;;;1.09;77.82
57594;BME280;43423;46.510;6.686;2023-03-03T02:06:51;96481.63;;;1.21;77.64
57594;BME280;43423;46.510;6.686;2023-03-03T02:12:13;96482.88;;;1.36;77.54
57594;BME280;43423;46.510;6.686;2023-03-03T02:14:41;96474.66;;;1.39;76.03
57594;BME280;43423;46.510;6.686;2023-03-03T02:17:07;96474.66;;;1.39;76.33
57594;BME280;43423;46.510;6.686;2023-03-03T02:22:21;96479.09;;;1.10;78.19
57594;BME280;43423;46.510;6.686;2023-03-03T02:24:56;96471.47;;;1.05;78.48
57594;BME280;43423;46.510;6.686;2023-03-03T02:27:26;96472.03;;;1.16;77.61
57594;BME280;43423;46.510;6.686;2023-03-03T02:29:53;96478.63;;;1.15;77.83
57594;BME280;43423;46.510;6.686;2023-03-03T02:32:18;96479.34;;;1.19;77.75
57594;BME280;43423;46.510;6.686;2023-03-03T02:34:49;96483.50;;;1.24;77.77
57594;BME280;43423;46.510;6.686;2023-03-03T02:37:15;96486.19;;;1.24;77.37
57594;BME280;43423;46.510;6.686;2023-03-03T02:39:42;96476.97;;;1.21;76.47
57594;BME280;43423;46.510;6.686;2023-03-03T02:42:24;96481.63;;;1.21;76.62
57594;BME280;43423;46.510;6.686;2023-03-03T02:44:51;96485.56;;;1.16;77.26
57594;BME280;43423;46.510;6.686;2023-03-03T02:47:17;96477.97;;;0.88;78.66
57594;BME280;43423;46.510;6.686;2023-03-03T02:49:42;96479.72;;;0.98;76.40
57594;BME280;43423;46.510;6.686;2023-03-03T02:52:10;96484.78;;;0.96;76.92
57594;BME280;43423;46.510;6.686;2023-03-03T02:54:36;96486.75;;;0.72;78.09
57594;BME280;43423;46.510;6.686;2023-03-03T02:57:03;96481.38;;;0.68;79.07
57594;BME280;43423;46.510;6.686;2023-03-03T02:59:28;96480.31;;;0.62;79.57
57594;BME280;43423;46.510;6.686;2023-03-03T03:01:54;96487.91;;;0.47;79.99
57594;BME280;43423;46.510;6.686;2023-03-03T03:04:24;96483.22;;;0.51;79.71
57594;BME280;43423;46.510;6.686;2023-03-03T03:06:51;96485.47;;;0.30;80.94
57594;BME280;43423;46.510;6.686;2023-03-03T03:09:17;96485.81;;;0.32;81.07
57594;BME280;43423;46.510;6.686;2023-03-03T03:11:44;96487.22;;;0.43;79.88
57594;BME280;43423;46.510;6.686;2023-03-03T03:14:11;96480.84;;;0.53;79.57
57594;BME280;43423;46.510;6.686;2023-03-03T03:16:37;96489.56;;;0.65;78.32
57594;BME280;43423;46.510;6.686;2023-03-03T03:19:03;96486.75;;;0.48;79.81
57594;BME280;43423;46.510;6.686;2023-03-03T03:21:29;96484.97;;;0.38;79.92
57594;BME280;43423;46.510;6.686;2023-03-03T03:23:55;96481.69;;;0.23;81.11
57594;BME280;43423;46.510;6.686;2023-03-03T03:26:21;96482.97;;;0.15;80.86
57594;BME280;43423;46.510;6.686;2023-03-03T03:28:47;96478.75;;;0.14;80.89
57594;BME280;43423;46.510;6.686;2023-03-03T03:31:14;96487.78;;;0.04;81.98
57594;BME280;43423;46.510;6.686;2023-03-03T03:33:40;96485.09;;;0.04;82.10
57594;BME280;43423;46.510;6.686;2023-03-03T03:36:06;96487.09;;;0.00;81.83
57594;BME280;43423;46.510;6.686;2023-03-03T03:38:33;96488.66;;;-0.03;82.41
57594;BME280;43423;46.510;6.686;2023-03-03T03:40:59;96492.75;;;0.09;81.82
57594;BME280;43423;46.510;6.686;2023-03-03T03:43:25;96488.38;;;0.15;80.80
57594;BME280;43423;46.510;6.686;2023-03-03T03:45:51;96493.09;;;0.11;81.16
57594;BME280;43423;46.510;6.686;2023-03-03T03:48:16;96503.09;;;0.14;80.49
57594;BME280;43423;46.510;6.686;2023-03-03T03:50:44;96496.88;;;0.17;81.03
57594;BME280;43423;46.510;6.686;2023-03-03T03:53:09;96494.97;;;0.14;80.98
57594;BME280;43423;46.510;6.686;2023-03-03T03:55:35;96495.38;;;0.13;81.44
57594;BME280;43423;46.510;6.686;2023-03-03T03:58:00;96498.06;;;0.16;81.12
57594;BME280;43423;46.510;6.686;2023-03-03T04:00:26;96495.22;;;0.23;80.48
57594;BME280;43423;46.510;6.686;2023-03-03T04:02:51;96501.72;;;0.30;80.05
57594;BME280;43423;46.510;6.686;2023-03-03T04:05:17;96502.88;;;0.28;80.00
57594;BME280;43423;46.510;6.686;2023-03-03T04:07:43;96503.97;;;0.35;80.37
57594;BME280;43423;46.510;6.686;2023-03-03T04:10:09;96495.50;;;0.33;80.38
57594;BME280;43423;46.510;6.686;2023-03-03T04:12:35;96502.63;;;0.19;80.94
57594;BME280;43423;46.510;6.686;2023-03-03T04:15:05;96499.09;;;0.22;80.94
57594;BME280;43423;46.510;6.686;2023-03-03T04:17:31;96492.13;;;0.25;80.28
57594;BME280;43423;46.510;6.686;2023-03-03T04:19:56;96498.75;;;0.20;81.41
57594;BME280;43423;46.510;6.686;2023-03-03T04:22:22;96505.09;;;0.10;81.75
57594;BME280;43423;46.510;6.686;2023-03-03T04:24:47;96516.00;;;0.03;81.85
57594;BME280;43423;46.510;6.686;2023-03-03T04:27:13;96508.16;;;0.12;82.90
57594;BME280;43423;46.510;6.686;2023-03-03T04:29:40;96508.59;;;0.07;83.55
57594;BME280;43423;46.510;6.686;2023-03-03T04:32:06;96505.28;;;0.23;83.00
57594;BME280;43423;46.510;6.686;2023-03-03T04:34:31;96503.75;;;0.22;82.14
57594;BME280;43423;46.510;6.686;2023-03-03T04:36:57;96509.94;;;0.22;81.68
57594;BME280;43423;46.510;6.686;2023-03-03T04:39:22;96508.50;;;0.14;82.15
57594;BME280;43423;46.510;6.686;2023-03-03T04:41:48;96502.81;;;0.09;81.93
57594;BME280;43423;46.510;6.686;2023-03-03T04:44:14;96491.66;;;0.03;82.53
57594;BME280;43423;46.510;6.686;2023-03-03T04:46:39;96498.59;;;0.04;82.76
57594;BME280;43423;46.510;6.686;2023-03-03T04:49:05;96499.81;;;-0.01;82.73
57594;BME280;43423;46.510;6.686;2023-03-03T04:51:33;96499.88;;;-0.04;82.68
57594;BME280;43423;46.510;6.686;2023-03-03T04:53:59;96506.09;;;-0.07;82.76
57594;BME280;43423;46.510;6.686;2023-03-03T04:56:24;96514.97;;;-0.07;82.68
57594;BME280;43423;46.510;6.686;2023-03-03T04:58:50;96509.59;;;-0.10;82.73
57594;BME280;43423;46.510;6.686;2023-03-03T05:01:16;96509.34;;;-0.19;82.81
57594;BME280;43423;46.510;6.686;2023-03-03T05:03:43;96503.31;;;-0.31;83.32
57594;BME280;43423;46.510;6.686;2023-03-03T05:06:09;96507.50;;;-0.26;83.49
57594;BME280;43423;46.510;6.686;2023-03-03T05:08:34;96513.25;;;-0.24;83.27
57594;BME280;43423;46.510;6.686;2023-03-03T05:11:00;96511.13;;;-0.09;82.94
57594;BME280;43423;46.510;6.686;2023-03-03T05:13:26;96508.06;;;-0.08;82.72
57594;BME280;43423;46.510;6.686;2023-03-03T05:15:54;96501.97;;;-0.15;82.69
57594;BME280;43423;46.510;6.686;2023-03-03T05:18:21;96500.41;;;-0.16;82.22
57594;BME280;43423;46.510;6.686;2023-03-03T05:20:47;96501.50;;;-0.10;82.60
57594;BME280;43423;46.510;6.686;2023-03-03T05:23:13;96505.69;;;-0.06;82.36
57594;BME280;43423;46.510;6.686;2023-03-03T05:25:40;96503.94;;;0.08;81.13
57594;BME280;43423;46.510;6.686;2023-03-03T05:28:06;96502.31;;;0.14;81.67
57594;BME280;43423;46.510;6.686;2023-03-03T05:30:32;96503.34;;;0.23;81.17
57594;BME280;43423;46.510;6.686;2023-03-03T05:32:58;96504.06;;;0.27;81.14
57594;BME280;43423;46.510;6.686;2023-03-03T05:35:26;96500.09;;;0.09;81.39
57594;BME280;43423;46.510;6.686;2023-03-03T05:37:53;96503.66;;;0.02;81.19
57594;BME280;43423;46.510;6.686;2023-03-03T05:40:19;96502.59;;;-0.04;80.51
57594;BME280;43423;46.510;6.686;2023-03-03T05:42:45;96501.16;;;-0.12;81.38
57594;BME280;43423;46.510;6.686;2023-03-03T05:45:11;96495.06;;;-0.20;81.65
57594;BME280;43423;46.510;6.686;2023-03-03T05:47:37;96503.41;;;-0.07;81.46
57594;BME280;43423;46.510;6.686;2023-03-03T05:50:04;96504.06;;;0.01;80.22
57594;BME280;43423;46.510;6.686;2023-03-03T05:52:29;96506.72;;;0.04;80.70
57594;BME280;43423;46.510;6.686;2023-03-03T05:54:55;96507.16;;;-0.01;80.39
57594;BME280;43423;46.510;6.686;2023-03-03T05:57:21;96510.69;;;-0.04;81.96
57594;BME280;43423;46.510;6.686;2023-03-03T05:59:47;96518.72;;;0.03;81.37
57594;BME280;43423;46.510;6.686;2023-03-03T06:02:12;96511.13;;;-0.09;81.95
57594;BME280;43423;46.510;6.686;2023-03-03T06:04:38;96509.00;;;-0.21;82.58
57594;BME280;43423;46.510;6.686;2023-03-03T06:07:04;96514.56;;;-0.36;82.99
57594;BME280;43423;46.510;6.686;2023-03-03T06:09:31;96517.72;;;-0.41;83.36
57594;BME280;43423;46.510;6.686;2023-03-03T06:11:56;96511.81;;;-0.32;82.82
57594;BME280;43423;46.510;6.686;2023-03-03T06:14:22;96509.03;;;-0.25;81.81
57594;BME280;43423;46.510;6.686;2023-03-03T06:16:47;96516.00;;;-0.28;81.81
57594;BME280;43423;46.510;6.686;2023-03-03T06:19:14;96522.41;;;-0.45;82.74
57594;BME280;43423;46.510;6.686;2023-03-03T06:21:40;96521.56;;;-0.38;82.58
57594;BME280;43423;46.510;6.686;2023-03-03T06:24:06;96528.00;;;-0.29;82.01
57594;BME280;43423;46.510;6.686;2023-03-03T06:26:32;96530.25;;;-0.23;82.38
57594;BME280;43423;46.510;6.686;2023-03-03T06:28:58;96531.53;;;-0.32;82.93
57594;BME280;43423;46.510;6.686;2023-03-03T06:31:24;96533.66;;;-0.19;82.65
57594;BME280;43423;46.510;6.686;2023-03-03T06:33:50;96541.34;;;-0.14;82.35
57594;BME280;43423;46.510;6.686;2023-03-03T06:36:17;96537.88;;;-0.15;82.57
57594;BME280;43423;46.510;6.686;2023-03-03T06:38:42;96544.03;;;-0.14;83.42
57594;BME280;43423;46.510;6.686;2023-03-03T06:41:08;96552.56;;;-0.16;83.30
57594;BME280;43423;46.510;6.686;2023-03-03T06:43:35;96558.59;;;-0.08;82.91
57594;BME280;43423;46.510;6.686;2023-03-03T06:46:01;96558.22;;;-0.07;82.24
57594;BME280;43423;46.510;6.686;2023-03-03T06:48:27;96563.56;;;-0.03;81.96
57594;BME280;43423;46.510;6.686;2023-03-03T06:50:52;96562.31;;;0.05;81.64
57594;BME280;43423;46.510;6.686;2023-03-03T06:53:18;96564.25;;;0.05;81.29
57594;BME280;43423;46.510;6.686;2023-03-03T06:55:44;96561.97;;;0.03;81.21
57594;BME280;43423;46.510;6.686;2023-03-03T06:58:15;96569.47;;;0.19;80.52
57594;BME280;43423;46.510;6.686;2023-03-03T07:00:43;96565.84;;;0.29;80.58
57594;BME280;43423;46.510;6.686;2023-03-03T07:03:18;96571.66;;;0.27;80.90
57594;BME280;43423;46.510;6.686;2023-03-03T07:05:47;96576.41;;;0.20;80.11
57594;BME280;43423;46.510;6.686;2023-03-03T07:08:16;96576.25;;;0.31;79.90
57594;BME280;43423;46.510;6.686;2023-03-03T07:10:42;96581.22;;;0.36;79.36
57594;BME280;43423;46.510;6.686;2023-03-03T07:13:24;96582.13;;;0.25;79.08
57594;BME280;43423;46.510;6.686;2023-03-03T07:15:51;96579.72;;;0.04;79.43
57594;BME280;43423;46.510;6.686;2023-03-03T07:18:38;96589.06;;;-0.04;79.42
57594;BME280;43423;46.510;6.686;2023-03-03T07:21:24;96589.25;;;0.12;79.57
57594;BME280;43423;46.510;6.686;2023-03-03T07:23:52;96581.59;;;0.07;79.69
57594;BME280;43423;46.510;6.686;2023-03-03T07:26:20;96590.75;;;0.17;79.71
57594;BME280;43423;46.510;6.686;2023-03-03T07:28:55;96588.59;;;0.32;80.20
57594;BME280;43423;46.510;6.686;2023-03-03T07:31:38;96597.00;;;0.41;80.07
57594;BME280;43423;46.510;6.686;2023-03-03T07:36:40;96594.06;;;0.55;79.88
57594;BME280;43423;46.510;6.686;2023-03-03T07:39:25;96600.66;;;0.54;80.89
57594;BME280;43423;46.510;6.686;2023-03-03T07:41:57;96595.03;;;0.68;80.36
57594;BME280;43423;46.510;6.686;2023-03-03T07:44:33;96598.75;;;0.78;80.42
57594;BME280;43423;46.510;6.686;2023-03-03T07:47:14;96605.59;;;0.86;79.78
57594;BME280;43423;46.510;6.686;2023-03-03T07:49:42;96609.97;;;0.80;80.50
57594;BME280;43423;46.510;6.686;2023-03-03T07:54:47;96605.56;;;1.13;80.06
57594;BME280;43423;46.510;6.686;2023-03-03T07:59:54;96605.06;;;1.42;79.71
57594;BME280;43423;46.510;6.686;2023-03-03T08:02:37;96609.66;;;1.45;78.84
57594;BME280;43423;46.510;6.686;2023-03-03T08:05:35;96601.53;;;1.45;79.34
57594;BME280;43423;46.510;6.686;2023-03-03T08:10:50;96596.69;;;1.56;79.93
57594;BME280;43423;46.510;6.686;2023-03-03T08:13:19;96599.94;;;1.47;79.96
57594;BME280;43423;46.510;6.686;2023-03-03T08:15:48;96598.97;;;1.57;78.97
57594;BME280;43423;46.510;6.686;2023-03-03T08:20:57;96598.72;;;1.72;79.21
57594;BME280;43423;46.510;6.686;2023-03-03T08:23:24;96603.50;;;1.64;78.99
57594;BME280;43423;46.510;6.686;2023-03-03T08:25:50;96599.72;;;1.58;79.98
57594;BME280;43423;46.510;6.686;2023-03-03T08:28:16;96608.78;;;1.51;79.74
57594;BME280;43423;46.510;6.686;2023-03-03T08:30:43;96611.63;;;1.64;79.95
57594;BME280;43423;46.510;6.686;2023-03-03T08:33:08;96612.88;;;1.59;79.86
57594;BME280;43423;46.510;6.686;2023-03-03T08:35:34;96603.75;;;1.50;80.75
57594;BME280;43423;46.510;6.686;2023-03-03T08:38:00;96615.44;;;1.47;81.06
57594;BME280;43423;46.510;6.686;2023-03-03T08:40:25;96603.16;;;1.62;80.59
57594;BME280;43423;46.510;6.686;2023-03-03T08:42:51;96608.94;;;2.04;80.00
57594;BME280;43423;46.510;6.686;2023-03-03T08:45:16;96605.06;;;2.41;77.64
57594;BME280;43423;46.510;6.686;2023-03-03T08:47:42;96606.31;;;2.89;77.56
57594;BME280;43423;46.510;6.686;2023-03-03T08:50:09;96605.88;;;3.23;76.42
57594;BME280;43423;46.510;6.686;2023-03-03T08:52:35;96601.97;;;3.40;73.67
57594;BME280;43423;46.510;6.686;2023-03-03T08:55:01;96606.53;;;3.43;73.06
57594;BME280;43423;46.510;6.686;2023-03-03T08:57:27;96610.13;;;3.69;72.83
57594;BME280;43423;46.510;6.686;2023-03-03T08:59:53;96607.91;;;3.80;72.46
57594;BME280;43423;46.510;6.686;2023-03-03T09:02:18;96608.75;;;4.06;70.91
57594;BME280;43423;46.510;6.686;2023-03-03T09:04:44;96616.53;;;4.20;71.03
57594;BME280;43423;46.510;6.686;2023-03-03T09:07:09;96614.44;;;4.25;70.62
57594;BME280;43423;46.510;6.686;2023-03-03T09:09:35;96609.81;;;3.96;70.76
57594;BME280;43423;46.510;6.686;2023-03-03T09:12:18;96617.25;;;4.08;71.13
57594;BME280;43423;46.510;6.686;2023-03-03T09:14:47;96614.78;;;3.85;71.30
57594;BME280;43423;46.510;6.686;2023-03-03T09:17:32;96627.66;;;3.97;70.80
57594;BME280;43423;46.510;6.686;2023-03-03T09:20:10;96617.97;;;3.96;70.62
57594;BME280;43423;46.510;6.686;2023-03-03T09:22:43;96617.31;;;3.92;70.87
57594;BME280;43423;46.510;6.686;2023-03-03T09:25:30;96612.38;;;3.58;71.12
57594;BME280;43423;46.510;6.686;2023-03-03T09:27:56;96621.84;;;3.82;71.37
57594;BME280;43423;46.510;6.686;2023-03-03T09:32:50;96609.13;;;4.21;70.29
57594;BME280;43423;46.510;6.686;2023-03-03T09:35:36;96611.41;;;4.23;69.43
57594;BME280;43423;46.510;6.686;2023-03-03T09:43:48;96625.75;;;3.81;71.04
57594;BME280;43423;46.510;6.686;2023-03-03T09:46:54;96629.66;;;4.09;71.45
57594;BME280;43423;46.510;6.686;2023-03-03T09:49:30;96622.50;;;4.15;68.87
57594;BME280;43423;46.510;6.686;2023-03-03T09:52:17;96616.53;;;4.20;68.65
57594;BME280;43423;46.510;6.686;2023-03-03T09:55:11;96623.06;;;4.23;68.43
57594;BME280;43423;46.510;6.686;2023-03-03T10:11:00;96629.47;;;5.44;66.25
57594;BME280;43423;46.510;6.686;2023-03-03T10:19:01;96622.84;;;5.32;64.74
57594;BME280;43423;46.510;6.686;2023-03-03T10:21:48;96623.31;;;5.30;65.47
57594;BME280;43423;46.510;6.686;2023-03-03T10:24:27;96628.94;;;5.49;63.90
57594;BME280;43423;46.510;6.686;2023-03-03T10:29:59;96628.88;;;5.14;65.92
57594;BME280;43423;46.510;6.686;2023-03-03T10:32:39;96625.53;;;5.45;64.15
57594;BME280;43423;46.510;6.686;2023-03-03T10:35:18;96631.28;;;5.12;64.32
57594;BME280;43423;46.510;6.686;2023-03-03T10:40:35;96626.44;;;5.42;65.00
57594;BME280;43423;46.510;6.686;2023-03-03T10:45:49;96631.44;;;6.34;63.59
57594;BME280;43423;46.510;6.686;2023-03-03T11:02:25;96637.47;;;7.22;60.41
57594;BME280;43423;46.510;6.686;2023-03-03T11:05:11;96644.94;;;6.60;62.09
57594;BME280;43423;46.510;6.686;2023-03-03T11:08:09;96650.38;;;7.22;60.45
57594;BME280;43423;46.510;6.686;2023-03-03T11:10:53;96654.88;;;7.65;60.01
57594;BME280;43423;46.510;6.686;2023-03-03T11:21:48;96646.78;;;6.94;60.81
57594;BME280;43423;46.510;6.686;2023-03-03T11:29:42;96640.69;;;7.39;59.07
57594;BME280;43423;46.510;6.686;2023-03-03T11:32:20;96644.25;;;7.67;57.71
57594;BME280;43423;46.510;6.686;2023-03-03T11:37:55;96637.22;;;7.57;58.86
57594;BME280;43423;46.510;6.686;2023-03-03T11:40:58;96628.88;;;7.51;58.98
57594;BME280;43423;46.510;6.686;2023-03-03T11:43:28;96633.47;;;8.00;58.91
57594;BME280;43423;46.510;6.686;2023-03-03T11:46:17;96631.03;;;7.93;58.30
57594;BME280;43423;46.510;6.686;2023-03-03T11:48:58;96626.78;;;8.01;58.23
57594;BME280;43423;46.510;6.686;2023-03-03T11:54:27;96617.81;;;8.01;57.33
57594;BME280;43423;46.510;6.686;2023-03-03T11:57:07;96625.25;;;8.00;58.17
57594;BME280;43423;46.510;6.686;2023-03-03T11:59:47;96613.66;;;8.33;57.98
57594;BME280;43423;46.510;6.686;2023-03-03T12:14:01;96593.47;;;7.75;58.38
57594;BME280;43423;46.510;6.686;2023-03-03T12:35:08;96578.91;;;7.02;61.65
57594;BME280;43423;46.510;6.686;2023-03-03T12:37:53;96587.28;;;6.58;63.12
57594;BME280;43423;46.510;6.686;2023-03-03T12:40:25;96584.91;;;6.47;63.34
57594;BME280;43423;46.510;6.686;2023-03-03T12:43:06;96583.72;;;6.48;63.41
57594;BME280;43423;46.510;6.686;2023-03-03T12:45:50;96583.66;;;6.70;63.19
57594;BME280;43423;46.510;6.686;2023-03-03T12:48:21;96586.00;;;6.50;62.79
57594;BME280;43423;46.510;6.686;2023-03-03T12:50:56;96588.78;;;6.06;63.94
57594;BME280;43423;46.510;6.686;2023-03-03T12:56:08;96579.19;;;5.79;65.05
57594;BME280;43423;46.510;6.686;2023-03-03T12:58:53;96585.78;;;5.69;65.83
57594;BME280;43423;46.510;6.686;2023-03-03T13:04:12;96593.44;;;5.83;64.72
57594;BME280;43423;46.510;6.686;2023-03-03T13:09:41;96590.06;;;5.57;66.05
57594;BME280;43423;46.510;6.686;2023-03-03T13:15:21;96591.88;;;5.39;67.36
57594;BME280;43423;46.510;6.686;2023-03-03T13:17:59;96588.22;;;5.07;68.10
57594;BME280;43423;46.510;6.686;2023-03-03T13:23:16;96590.50;;;5.21;65.74
57594;BME280;43423;46.510;6.686;2023-03-03T13:25:52;96599.69;;;5.02;65.75
57594;BME280;43423;46.510;6.686;2023-03-03T13:28:27;96594.66;;;4.88;65.88
57594;BME280;43423;46.510;6.686;2023-03-03T13:31:07;96594.88;;;5.06;66.07
57594;BME280;43423;46.510;6.686;2023-03-03T13:33:38;96592.69;;;5.01;66.15
57594;BME280;43423;46.510;6.686;2023-03-03T13:36:08;96585.16;;;5.18;66.47
57594;BME280;43423;46.510;6.686;2023-03-03T13:38:41;96581.84;;;5.36;65.92
57594;BME280;43423;46.510;6.686;2023-03-03T13:41:19;96583.47;;;5.46;64.36
57594;BME280;43423;46.510;6.686;2023-03-03T13:44:24;96587.66;;;5.59;64.39
57594;BME280;43423;46.510;6.686;2023-03-03T13:52:04;96580.81;;;5.55;66.88
57594;BME280;43423;46.510;6.686;2023-03-03T13:59:53;96586.88;;;5.24;67.66
57594;BME280;43423;46.510;6.686;2023-03-03T14:03:42;96569.69;;;5.49;66.80
57594;BME280;43423;46.510;6.686;2023-03-03T14:05:45;96573.06;;;5.53;67.42
57594;BME280;43423;46.510;6.686;2023-03-03T14:08:39;96570.22;;;5.57;65.98
57594;BME280;43423;46.510;6.686;2023-03-03T14:17:11;96566.50;;;5.51;66.82
57594;BME280;43423;46.510;6.686;2023-03-03T14:19:43;96573.19;;;5.50;66.60
57594;BME280;43423;46.510;6.686;2023-03-03T14:22:15;96569.47;;;5.44;66.85
57594;BME280;43423;46.510;6.686;2023-03-03T14:25:03;96569.63;;;5.40;66.55
57594;BME280;43423;46.510;6.686;2023-03-03T14:27:40;96571.25;;;5.38;67.06
57594;BME280;43423;46.510;6.686;2023-03-03T14:35:43;96565.19;;;5.55;66.33
57594;BME280;43423;46.510;6.686;2023-03-03T14:38:13;96562.50;;;5.43;67.06
57594;BME280;43423;46.510;6.686;2023-03-03T14:40:40;96568.13;;;5.61;68.19
57594;BME280;43423;46.510;6.686;2023-03-03T14:43:32;96565.06;;;5.59;66.93
57594;BME280;43423;46.510;6.686;2023-03-03T14:46:35;96563.06;;;5.72;67.41
57594;BME280;43423;46.510;6.686;2023-03-03T14:49:12;96558.09;;;5.58;66.85
57594;BME280;43423;46.510;6.686;2023-03-03T14:51:47;96561.03;;;5.64;67.20
57594;BME280;43423;46.510;6.686;2023-03-03T14:54:20;96564.97;;;5.63;66.41
57594;BME280;43423;46.510;6.686;2023-03-03T14:59:35;96556.31;;;5.64;66.47
57594;BME280;43423;46.510;6.686;2023-03-03T15:02:27;96562.41;;;5.68;66.14
57594;BME280;43423;46.510;6.686;2023-03-03T15:05:12;96559.94;;;5.61;65.93
57594;BME280;43423;46.510;6.686;2023-03-03T15:07:40;96558.25;;;5.42;66.60
57594;BME280;43423;46.510;6.686;2023-03-03T15:10:07;96555.84;;;5.44;67.74
57594;BME280;43423;46.510;6.686;2023-03-03T15:12:39;96560.34;;;5.38;67.48
57594;BME280;43423;46.510;6.686;2023-03-03T15:17:42;96555.72;;;5.13;68.03
57594;BME280;43423;46.510;6.686;2023-03-03T15:20:34;96557.13;;;5.17;68.74
57594;BME280;43423;46.510;6.686;2023-03-03T15:23:13;96557.06;;;5.43;67.78
57594;BME280;43423;46.510;6.686;2023-03-03T15:31:30;96560.59;;;5.30;67.07
57594;BME280;43423;46.510;6.686;2023-03-03T15:36:39;96559.84;;;5.17;67.42
57594;BME280;43423;46.510;6.686;2023-03-03T15:42:27;96568.44;;;5.28;66.61
57594;BME280;43423;46.510;6.686;2023-03-03T15:45:29;96569.91;;;5.08;68.25
57594;BME280;43423;46.510;6.686;2023-03-03T15:48:13;96570.69;;;5.08;67.72
57594;BME280;43423;46.510;6.686;2023-03-03T15:50:54;96568.72;;;5.09;67.78
57594;BME280;43423;46.510;6.686;2023-03-03T15:56:50;96566.44;;;5.07;67.84
57594;BME280;43423;46.510;6.686;2023-03-03T16:02:41;96566.34;;;4.98;68.43
57594;BME280;43423;46.510;6.686;2023-03-03T16:05:33;96580.59;;;5.02;67.75
57594;BME280;43423;46.510;6.686;2023-03-03T16:08:13;96574.38;;;5.01;67.97
57594;BME280;43423;46.510;6.686;2023-03-03T16:11:05;96582.78;;;5.07;67.60
57594;BME280;43423;46.510;6.686;2023-03-03T16:13:47;96580.81;;;5.08;67.89
57594;BME280;43423;46.510;6.686;2023-03-03T16:16:27;96591.06;;;5.03;68.01
57594;BME280;43423;46.510;6.686;2023-03-03T16:19:10;96585.72;;;5.00;67.58
57594;BME280;43423;46.510;6.686;2023-03-03T16:29:24;96588.25;;;4.94;68.07
57594;BME280;43423;46.510;6.686;2023-03-03T16:32:01;96581.91;;;4.97;68.44
57594;BME280;43423;46.510;6.686;2023-03-03T16:34:35;96587.78;;;4.96;67.81
57594;BME280;43423;46.510;6.686;2023-03-03T16:37:13;96589.88;;;4.92;68.43
57594;BME280;43423;46.510;6.686;2023-03-03T16:45:27;96596.84;;;4.80;70.39
57594;BME280;43423;46.510;6.686;2023-03-03T16:53:00;96605.47;;;4.91;69.95
57594;BME280;43423;46.510;6.686;2023-03-03T16:55:41;96600.13;;;4.88;70.12